sensor_id;sensor_type;location;lat;lon;timestamp;P1;durP1;ratioP1;P2;durP2;ratioP2
70549;SDS011;58101;48.658;2.328;2023-02-18T00:02:17;15.73;;;7.40;;
70549;SDS011;58101;48.658;2.328;2023-02-18T00:04:43;17.85;;;7.90;;
70549;SDS011;58101;48.658;2.328;2023-02-18T00:07:08;16.15;;;7.70;;
70549;SDS011;58101;48.658;2.328;2023-02-18T00:09:34;14.90;;;7.15;;
70549;SDS011;58101;48.658;2.328;2023-02-18T00:12:00;15.85;;;7.85;;
70549;SDS011;58101;48.658;2.328;2023-02-18T00:14:25;17.20;;;8.05;;
70549;SDS011;58101;48.658;2.328;2023-02-18T00:16:51;15.43;;;7.80;;
70549;SDS011;58101;48.658;2.328;2023-02-18T00:19:18;15.82;;;7.57;;
70549;SDS011;58101;48.658;2.328;2023-02-18T00:21:44;16.38;;;7.57;;
70549;SDS011;58101;48.658;2.328;2023-02-18T00:26:39;15.68;;;7.72;;
70549;SDS011;58101;48.658;2.328;2023-02-18T00:29:05;14.60;;;7.03;;
70549;SDS011;58101;48.658;2.328;2023-02-18T00:31:32;15.63;;;7.65;;
70549;SDS011;58101;48.658;2.328;2023-02-18T00:33:59;16.45;;;7.60;;
70549;SDS011;58101;48.658;2.328;2023-02-18T00:38:52;16.65;;;7.10;;
70549;SDS011;58101;48.658;2.328;2023-02-18T00:41:21;15.85;;;7.63;;
70549;SDS011;58101;48.658;2.328;2023-02-18T00:43:49;14.60;;;7.30;;
70549;SDS011;58101;48.658;2.328;2023-02-18T00:46:15;14.18;;;7.05;;
70549;SDS011;58101;48.658;2.328;2023-02-18T00:48:40;14.43;;;6.88;;
70549;SDS011;58101;48.658;2.328;2023-02-18T00:51:06;19.55;;;7.32;;
70549;SDS011;58101;48.658;2.328;2023-02-18T00:53:32;14.18;;;6.65;;
70549;SDS011;58101;48.658;2.328;2023-02-18T00:55:58;14.90;;;7.22;;
70549;SDS011;58101;48.658;2.328;2023-02-18T00:58:24;14.27;;;6.88;;
70549;SDS011;58101;48.658;2.328;2023-02-18T01:00:50;13.20;;;6.28;;
70549;SDS011;58101;48.658;2.328;2023-02-18T01:03:15;13.45;;;6.68;;
70549;SDS011;58101;48.658;2.328;2023-02-18T01:05:42;14.82;;;6.95;;
70549;SDS011;58101;48.658;2.328;2023-02-18T01:08:08;14.07;;;7.18;;
70549;SDS011;58101;48.658;2.328;2023-02-18T01:10:35;12.80;;;6.38;;
70549;SDS011;58101;48.658;2.328;2023-02-18T01:13:04;13.73;;;6.90;;
70549;SDS011;58101;48.658;2.328;2023-02-18T01:15:29;15.32;;;6.68;;
70549;SDS011;58101;48.658;2.328;2023-02-18T01:17:55;12.52;;;6.43;;
70549;SDS011;58101;48.658;2.328;2023-02-18T01:20:21;15.07;;;6.63;;
70549;SDS011;58101;48.658;2.328;2023-02-18T01:22:47;14.70;;;6.70;;
70549;SDS011;58101;48.658;2.328;2023-02-18T01:25:13;15.02;;;7.32;;
70549;SDS011;58101;48.658;2.328;2023-02-18T01:27:39;14.32;;;6.88;;
70549;SDS011;58101;48.658;2.328;2023-02-18T01:30:05;13.10;;;6.25;;
70549;SDS011;58101;48.658;2.328;2023-02-18T01:32:32;13.18;;;6.50;;
70549;SDS011;58101;48.658;2.328;2023-02-18T01:35:02;14.32;;;6.68;;
70549;SDS011;58101;48.658;2.328;2023-02-18T01:37:30;13.13;;;6.05;;
70549;SDS011;58101;48.658;2.328;2023-02-18T01:39:56;12.40;;;6.00;;
70549;SDS011;58101;48.658;2.328;2023-02-18T01:42:22;13.52;;;6.38;;
70549;SDS011;58101;48.658;2.328;2023-02-18T01:44:51;14.52;;;6.43;;
70549;SDS011;58101;48.658;2.328;2023-02-18T01:47:17;13.70;;;6.43;;
70549;SDS011;58101;48.658;2.328;2023-02-18T01:49:44;12.63;;;5.85;;
70549;SDS011;58101;48.658;2.328;2023-02-18T01:52:13;14.80;;;5.68;;
70549;SDS011;58101;48.658;2.328;2023-02-18T01:54:42;11.95;;;5.88;;
70549;SDS011;58101;48.658;2.328;2023-02-18T01:57:16;12.77;;;6.50;;
70549;SDS011;58101;48.658;2.328;2023-02-18T01:59:48;14.45;;;6.80;;
70549;SDS011;58101;48.658;2.328;2023-02-18T02:02:18;14.93;;;6.70;;
70549;SDS011;58101;48.658;2.328;2023-02-18T02:04:45;14.93;;;6.93;;
70549;SDS011;58101;48.658;2.328;2023-02-18T02:07:12;13.90;;;6.55;;
70549;SDS011;58101;48.658;2.328;2023-02-18T02:09:39;14.73;;;6.60;;
70549;SDS011;58101;48.658;2.328;2023-02-18T02:14:53;15.32;;;6.65;;
70549;SDS011;58101;48.658;2.328;2023-02-18T02:17:34;13.68;;;6.28;;
70549;SDS011;58101;48.658;2.328;2023-02-18T02:31:24;14.65;;;7.00;;
70549;SDS011;58101;48.658;2.328;2023-02-18T02:36:53;16.40;;;7.30;;
70549;SDS011;58101;48.658;2.328;2023-02-18T02:39:53;18.27;;;7.82;;
70549;SDS011;58101;48.658;2.328;2023-02-18T02:50:37;17.35;;;7.82;;
70549;SDS011;58101;48.658;2.328;2023-02-18T02:53:19;15.43;;;7.28;;
70549;SDS011;58101;48.658;2.328;2023-02-18T02:55:50;17.08;;;7.57;;
70549;SDS011;58101;48.658;2.328;2023-02-18T02:58:17;15.65;;;8.00;;
70549;SDS011;58101;48.658;2.328;2023-02-18T03:06:10;17.63;;;7.95;;
70549;SDS011;58101;48.658;2.328;2023-02-18T03:11:46;18.17;;;8.30;;
70549;SDS011;58101;48.658;2.328;2023-02-18T03:16:58;18.10;;;7.93;;
70549;SDS011;58101;48.658;2.328;2023-02-18T03:22:10;17.55;;;7.93;;
70549;SDS011;58101;48.658;2.328;2023-02-18T03:24:43;20.52;;;8.70;;
70549;SDS011;58101;48.658;2.328;2023-02-18T03:27:28;18.10;;;8.38;;
70549;SDS011;58101;48.658;2.328;2023-02-18T03:30:02;17.50;;;8.10;;
70549;SDS011;58101;48.658;2.328;2023-02-18T03:32:35;17.35;;;7.90;;
70549;SDS011;58101;48.658;2.328;2023-02-18T03:35:02;17.30;;;8.18;;
70549;SDS011;58101;48.658;2.328;2023-02-18T03:37:33;16.75;;;8.35;;
70549;SDS011;58101;48.658;2.328;2023-02-18T03:40:04;17.63;;;8.43;;
70549;SDS011;58101;48.658;2.328;2023-02-18T03:42:31;17.33;;;8.27;;
70549;SDS011;58101;48.658;2.328;2023-02-18T03:44:57;15.32;;;7.30;;
70549;SDS011;58101;48.658;2.328;2023-02-18T03:47:23;17.40;;;7.70;;
70549;SDS011;58101;48.658;2.328;2023-02-18T03:49:49;17.80;;;8.43;;
70549;SDS011;58101;48.658;2.328;2023-02-18T03:52:14;18.08;;;8.20;;
70549;SDS011;58101;48.658;2.328;2023-02-18T03:54:40;18.02;;;8.52;;
70549;SDS011;58101;48.658;2.328;2023-02-18T03:57:06;17.38;;;8.48;;
70549;SDS011;58101;48.658;2.328;2023-02-18T03:59:32;19.25;;;8.23;;
70549;SDS011;58101;48.658;2.328;2023-02-18T04:01:58;15.73;;;7.85;;
70549;SDS011;58101;48.658;2.328;2023-02-18T04:04:23;16.80;;;7.80;;
70549;SDS011;58101;48.658;2.328;2023-02-18T04:06:49;18.30;;;7.85;;
70549;SDS011;58101;48.658;2.328;2023-02-18T04:09:15;15.82;;;7.50;;
70549;SDS011;58101;48.658;2.328;2023-02-18T04:11:40;16.00;;;7.32;;
70549;SDS011;58101;48.658;2.328;2023-02-18T04:14:06;17.92;;;7.88;;
70549;SDS011;58101;48.658;2.328;2023-02-18T04:16:32;17.23;;;7.25;;
70549;SDS011;58101;48.658;2.328;2023-02-18T04:18:58;15.77;;;7.13;;
70549;SDS011;58101;48.658;2.328;2023-02-18T04:21:24;17.40;;;7.68;;
70549;SDS011;58101;48.658;2.328;2023-02-18T04:23:49;16.10;;;8.07;;
70549;SDS011;58101;48.658;2.328;2023-02-18T04:26:15;16.15;;;6.63;;
70549;SDS011;58101;48.658;2.328;2023-02-18T04:28:41;18.75;;;7.80;;
70549;SDS011;58101;48.658;2.328;2023-02-18T04:31:06;17.95;;;7.40;;
70549;SDS011;58101;48.658;2.328;2023-02-18T04:33:32;17.15;;;7.50;;
70549;SDS011;58101;48.658;2.328;2023-02-18T04:35:58;16.55;;;7.60;;
70549;SDS011;58101;48.658;2.328;2023-02-18T04:38:23;15.32;;;7.00;;
70549;SDS011;58101;48.658;2.328;2023-02-18T04:40:49;14.13;;;6.90;;
70549;SDS011;58101;48.658;2.328;2023-02-18T04:43:15;14.85;;;7.13;;
70549;SDS011;58101;48.658;2.328;2023-02-18T04:45:40;16.88;;;7.00;;
70549;SDS011;58101;48.658;2.328;2023-02-18T04:48:06;16.73;;;7.40;;
70549;SDS011;58101;48.658;2.328;2023-02-18T04:50:31;20.90;;;7.22;;
70549;SDS011;58101;48.658;2.328;2023-02-18T04:52:57;16.67;;;6.78;;
70549;SDS011;58101;48.658;2.328;2023-02-18T04:55:23;14.40;;;6.22;;
70549;SDS011;58101;48.658;2.328;2023-02-18T04:57:49;15.07;;;6.47;;
70549;SDS011;58101;48.658;2.328;2023-02-18T05:00:15;14.52;;;6.32;;
70549;SDS011;58101;48.658;2.328;2023-02-18T05:02:43;13.93;;;6.25;;
70549;SDS011;58101;48.658;2.328;2023-02-18T05:05:09;13.77;;;6.20;;
70549;SDS011;58101;48.658;2.328;2023-02-18T05:07:35;14.40;;;6.10;;
70549;SDS011;58101;48.658;2.328;2023-02-18T05:10:01;13.70;;;6.28;;
70549;SDS011;58101;48.658;2.328;2023-02-18T05:12:26;13.63;;;5.85;;
70549;SDS011;58101;48.658;2.328;2023-02-18T05:14:52;12.38;;;5.22;;
70549;SDS011;58101;48.658;2.328;2023-02-18T05:17:18;12.45;;;5.22;;
70549;SDS011;58101;48.658;2.328;2023-02-18T05:19:43;13.75;;;5.80;;
70549;SDS011;58101;48.658;2.328;2023-02-18T05:22:09;11.82;;;5.07;;
70549;SDS011;58101;48.658;2.328;2023-02-18T05:24:35;11.85;;;5.05;;
70549;SDS011;58101;48.658;2.328;2023-02-18T05:27:00;11.35;;;4.93;;
70549;SDS011;58101;48.658;2.328;2023-02-18T05:29:26;14.90;;;6.03;;
70549;SDS011;58101;48.658;2.328;2023-02-18T05:31:51;12.07;;;4.90;;
70549;SDS011;58101;48.658;2.328;2023-02-18T05:34:17;12.88;;;5.40;;
70549;SDS011;58101;48.658;2.328;2023-02-18T05:36:43;11.70;;;5.15;;
70549;SDS011;58101;48.658;2.328;2023-02-18T05:39:08;10.48;;;4.97;;
70549;SDS011;58101;48.658;2.328;2023-02-18T05:41:34;12.35;;;5.28;;
70549;SDS011;58101;48.658;2.328;2023-02-18T05:43:59;13.10;;;4.78;;
70549;SDS011;58101;48.658;2.328;2023-02-18T05:46:44;12.75;;;5.47;;
70549;SDS011;58101;48.658;2.328;2023-02-18T05:49:09;13.45;;;5.13;;
70549;SDS011;58101;48.658;2.328;2023-02-18T05:51:35;11.10;;;5.07;;
70549;SDS011;58101;48.658;2.328;2023-02-18T05:54:01;11.00;;;5.00;;
70549;SDS011;58101;48.658;2.328;2023-02-18T05:56:26;12.73;;;5.05;;
70549;SDS011;58101;48.658;2.328;2023-02-18T05:58:52;11.32;;;5.22;;
70549;SDS011;58101;48.658;2.328;2023-02-18T06:01:18;10.50;;;4.57;;
70549;SDS011;58101;48.658;2.328;2023-02-18T06:03:43;11.45;;;4.93;;
70549;SDS011;58101;48.658;2.328;2023-02-18T06:06:09;11.15;;;4.78;;
70549;SDS011;58101;48.658;2.328;2023-02-18T06:08:35;11.27;;;5.00;;
70549;SDS011;58101;48.658;2.328;2023-02-18T06:11:00;12.05;;;4.93;;
70549;SDS011;58101;48.658;2.328;2023-02-18T06:13:26;11.57;;;5.13;;
70549;SDS011;58101;48.658;2.328;2023-02-18T06:15:52;11.93;;;4.97;;
70549;SDS011;58101;48.658;2.328;2023-02-18T06:18:18;10.73;;;5.05;;
70549;SDS011;58101;48.658;2.328;2023-02-18T06:20:48;11.38;;;5.05;;
70549;SDS011;58101;48.658;2.328;2023-02-18T06:23:14;11.32;;;5.00;;
70549;SDS011;58101;48.658;2.328;2023-02-18T06:25:40;10.85;;;4.72;;
70549;SDS011;58101;48.658;2.328;2023-02-18T06:28:06;12.10;;;5.20;;
70549;SDS011;58101;48.658;2.328;2023-02-18T06:30:32;12.77;;;5.20;;
70549;SDS011;58101;48.658;2.328;2023-02-18T06:32:58;11.65;;;4.80;;
70549;SDS011;58101;48.658;2.328;2023-02-18T06:35:23;11.95;;;5.10;;
70549;SDS011;58101;48.658;2.328;2023-02-18T06:37:49;10.85;;;4.80;;
70549;SDS011;58101;48.658;2.328;2023-02-18T06:40:15;11.70;;;4.68;;
70549;SDS011;58101;48.658;2.328;2023-02-18T06:42:42;12.60;;;4.07;;
70549;SDS011;58101;48.658;2.328;2023-02-18T06:45:08;9.75;;;3.53;;
70549;SDS011;58101;48.658;2.328;2023-02-18T06:47:34;9.63;;;3.40;;
70549;SDS011;58101;48.658;2.328;2023-02-18T06:49:59;8.35;;;3.22;;
70549;SDS011;58101;48.658;2.328;2023-02-18T06:52:25;9.15;;;3.10;;
70549;SDS011;58101;48.658;2.328;2023-02-18T06:54:51;7.22;;;3.00;;
70549;SDS011;58101;48.658;2.328;2023-02-18T06:57:16;7.90;;;3.08;;
70549;SDS011;58101;48.658;2.328;2023-02-18T06:59:42;7.70;;;3.28;;
70549;SDS011;58101;48.658;2.328;2023-02-18T07:02:09;7.78;;;3.10;;
70549;SDS011;58101;48.658;2.328;2023-02-18T07:04:38;8.45;;;3.53;;
70549;SDS011;58101;48.658;2.328;2023-02-18T07:07:04;8.63;;;3.30;;
70549;SDS011;58101;48.658;2.328;2023-02-18T07:09:30;9.60;;;3.78;;
70549;SDS011;58101;48.658;2.328;2023-02-18T07:11:55;10.23;;;3.70;;
70549;SDS011;58101;48.658;2.328;2023-02-18T07:14:21;9.55;;;4.03;;
70549;SDS011;58101;48.658;2.328;2023-02-18T07:21:39;10.60;;;4.47;;
70549;SDS011;58101;48.658;2.328;2023-02-18T07:24:05;12.25;;;5.25;;
70549;SDS011;58101;48.658;2.328;2023-02-18T07:26:30;11.98;;;4.75;;
70549;SDS011;58101;48.658;2.328;2023-02-18T07:28:56;12.38;;;4.82;;
70549;SDS011;58101;48.658;2.328;2023-02-18T07:31:22;11.00;;;4.55;;
70549;SDS011;58101;48.658;2.328;2023-02-18T07:33:47;10.05;;;4.50;;
70549;SDS011;58101;48.658;2.328;2023-02-18T07:36:13;10.25;;;4.53;;
70549;SDS011;58101;48.658;2.328;2023-02-18T07:38:38;9.73;;;4.70;;
70549;SDS011;58101;48.658;2.328;2023-02-18T07:41:04;10.43;;;4.72;;
70549;SDS011;58101;48.658;2.328;2023-02-18T07:43:30;11.75;;;4.55;;
70549;SDS011;58101;48.658;2.328;2023-02-18T07:45:55;9.48;;;4.32;;
70549;SDS011;58101;48.658;2.328;2023-02-18T07:48:21;10.85;;;4.50;;
70549;SDS011;58101;48.658;2.328;2023-02-18T07:50:46;9.38;;;4.40;;
70549;SDS011;58101;48.658;2.328;2023-02-18T07:53:13;10.13;;;3.90;;
70549;SDS011;58101;48.658;2.328;2023-02-18T07:55:39;11.20;;;3.60;;
70549;SDS011;58101;48.658;2.328;2023-02-18T07:58:33;9.60;;;3.80;;
70549;SDS011;58101;48.658;2.328;2023-02-18T08:01:05;7.20;;;2.95;;
70549;SDS011;58101;48.658;2.328;2023-02-18T08:03:32;6.72;;;2.60;;
70549;SDS011;58101;48.658;2.328;2023-02-18T08:05:59;9.85;;;2.80;;
70549;SDS011;58101;48.658;2.328;2023-02-18T08:08:26;7.00;;;2.35;;
70549;SDS011;58101;48.658;2.328;2023-02-18T08:10:54;6.50;;;2.28;;
70549;SDS011;58101;48.658;2.328;2023-02-18T08:13:21;7.60;;;2.42;;
70549;SDS011;58101;48.658;2.328;2023-02-18T08:15:47;7.70;;;2.47;;
70549;SDS011;58101;48.658;2.328;2023-02-18T08:18:14;8.27;;;2.55;;
70549;SDS011;58101;48.658;2.328;2023-02-18T08:20:45;6.93;;;1.85;;
70549;SDS011;58101;48.658;2.328;2023-02-18T08:23:12;5.90;;;1.85;;
70549;SDS011;58101;48.658;2.328;2023-02-18T08:25:38;6.45;;;1.83;;
70549;SDS011;58101;48.658;2.328;2023-02-18T08:28:05;6.57;;;2.33;;
70549;SDS011;58101;48.658;2.328;2023-02-18T08:30:31;7.32;;;2.20;;
70549;SDS011;58101;48.658;2.328;2023-02-18T08:32:56;6.13;;;1.88;;
70549;SDS011;58101;48.658;2.328;2023-02-18T08:35:22;6.50;;;1.90;;
70549;SDS011;58101;48.658;2.328;2023-02-18T08:37:48;6.53;;;1.80;;
70549;SDS011;58101;48.658;2.328;2023-02-18T08:40:14;6.57;;;1.85;;
70549;SDS011;58101;48.658;2.328;2023-02-18T08:42:40;6.65;;;2.03;;
70549;SDS011;58101;48.658;2.328;2023-02-18T08:45:05;5.85;;;1.65;;
70549;SDS011;58101;48.658;2.328;2023-02-18T08:47:32;6.20;;;1.70;;
70549;SDS011;58101;48.658;2.328;2023-02-18T08:49:57;8.07;;;1.38;;
70549;SDS011;58101;48.658;2.328;2023-02-18T08:52:52;6.05;;;1.67;;
70549;SDS011;58101;48.658;2.328;2023-02-18T08:55:18;5.53;;;1.38;;
70549;SDS011;58101;48.658;2.328;2023-02-18T08:57:45;6.53;;;1.50;;
70549;SDS011;58101;48.658;2.328;2023-02-18T09:00:12;5.88;;;1.50;;
70549;SDS011;58101;48.658;2.328;2023-02-18T09:02:39;7.00;;;1.50;;
70549;SDS011;58101;48.658;2.328;2023-02-18T09:05:05;6.18;;;1.70;;
70549;SDS011;58101;48.658;2.328;2023-02-18T09:07:30;5.53;;;1.30;;
70549;SDS011;58101;48.658;2.328;2023-02-18T09:09:56;4.53;;;1.08;;
70549;SDS011;58101;48.658;2.328;2023-02-18T09:12:22;5.05;;;1.17;;
70549;SDS011;58101;48.658;2.328;2023-02-18T09:14:47;4.82;;;1.02;;
70549;SDS011;58101;48.658;2.328;2023-02-18T09:17:13;6.05;;;1.23;;
70549;SDS011;58101;48.658;2.328;2023-02-18T09:19:39;5.88;;;1.30;;
70549;SDS011;58101;48.658;2.328;2023-02-18T09:22:04;5.47;;;1.10;;
70549;SDS011;58101;48.658;2.328;2023-02-18T09:24:30;5.75;;;0.90;;
70549;SDS011;58101;48.658;2.328;2023-02-18T09:27:00;5.57;;;1.10;;
70549;SDS011;58101;48.658;2.328;2023-02-18T09:29:26;7.20;;;1.10;;
70549;SDS011;58101;48.658;2.328;2023-02-18T09:31:51;4.60;;;1.00;;
70549;SDS011;58101;48.658;2.328;2023-02-18T09:34:17;5.72;;;1.10;;
70549;SDS011;58101;48.658;2.328;2023-02-18T09:36:43;3.53;;;0.90;;
70549;SDS011;58101;48.658;2.328;2023-02-18T09:39:08;6.30;;;1.00;;
70549;SDS011;58101;48.658;2.328;2023-02-18T09:41:44;5.78;;;1.42;;
70549;SDS011;58101;48.658;2.328;2023-02-18T09:44:26;8.32;;;1.02;;
70549;SDS011;58101;48.658;2.328;2023-02-18T09:49:28;3.30;;;0.90;;
70549;SDS011;58101;48.658;2.328;2023-02-18T09:52:02;5.18;;;0.95;;
70549;SDS011;58101;48.658;2.328;2023-02-18T09:54:40;4.78;;;1.00;;
70549;SDS011;58101;48.658;2.328;2023-02-18T09:57:06;5.75;;;0.93;;
70549;SDS011;58101;48.658;2.328;2023-02-18T09:59:59;4.90;;;1.00;;
70549;SDS011;58101;48.658;2.328;2023-02-18T10:02:29;7.32;;;1.75;;
70549;SDS011;58101;48.658;2.328;2023-02-18T10:04:55;5.10;;;1.10;;
70549;SDS011;58101;48.658;2.328;2023-02-18T10:07:26;5.05;;;1.00;;
70549;SDS011;58101;48.658;2.328;2023-02-18T10:09:55;5.13;;;1.02;;
70549;SDS011;58101;48.658;2.328;2023-02-18T10:12:24;4.78;;;0.95;;
70549;SDS011;58101;48.658;2.328;2023-02-18T10:14:54;3.22;;;0.80;;
70549;SDS011;58101;48.658;2.328;2023-02-18T10:17:23;7.50;;;1.27;;
70549;SDS011;58101;48.658;2.328;2023-02-18T10:19:51;6.40;;;0.98;;
70549;SDS011;58101;48.658;2.328;2023-02-18T10:22:18;4.93;;;1.00;;
70549;SDS011;58101;48.658;2.328;2023-02-18T10:24:50;6.32;;;0.95;;
70549;SDS011;58101;48.658;2.328;2023-02-18T10:27:54;6.72;;;1.10;;
70549;SDS011;58101;48.658;2.328;2023-02-18T10:32:39;7.28;;;1.25;;
70549;SDS011;58101;48.658;2.328;2023-02-18T10:35:15;6.82;;;1.17;;
70549;SDS011;58101;48.658;2.328;2023-02-18T10:45:50;6.45;;;1.02;;
70549;SDS011;58101;48.658;2.328;2023-02-18T10:51:01;5.15;;;1.10;;
70549;SDS011;58101;48.658;2.328;2023-02-18T10:53:38;4.60;;;1.00;;
70549;SDS011;58101;48.658;2.328;2023-02-18T10:56:07;4.03;;;1.05;;
70549;SDS011;58101;48.658;2.328;2023-02-18T10:58:42;6.95;;;1.13;;
70549;SDS011;58101;48.658;2.328;2023-02-18T11:01:20;4.53;;;1.00;;
70549;SDS011;58101;48.658;2.328;2023-02-18T11:08:42;5.00;;;0.90;;
70549;SDS011;58101;48.658;2.328;2023-02-18T11:11:20;7.35;;;1.10;;
70549;SDS011;58101;48.658;2.328;2023-02-18T11:16:22;5.97;;;1.08;;
70549;SDS011;58101;48.658;2.328;2023-02-18T11:19:00;5.03;;;1.10;;
70549;SDS011;58101;48.658;2.328;2023-02-18T11:21:33;7.15;;;1.00;;
70549;SDS011;58101;48.658;2.328;2023-02-18T11:24:14;6.55;;;0.98;;
70549;SDS011;58101;48.658;2.328;2023-02-18T11:26:40;6.90;;;1.00;;
70549;SDS011;58101;48.658;2.328;2023-02-18T11:29:17;5.25;;;1.10;;
70549;SDS011;58101;48.658;2.328;2023-02-18T11:31:46;6.78;;;1.08;;
70549;SDS011;58101;48.658;2.328;2023-02-18T11:34:14;6.45;;;1.30;;
70549;SDS011;58101;48.658;2.328;2023-02-18T11:36:45;7.82;;;2.13;;
70549;SDS011;58101;48.658;2.328;2023-02-18T11:39:16;5.20;;;1.17;;
70549;SDS011;58101;48.658;2.328;2023-02-18T11:41:48;5.70;;;1.33;;
70549;SDS011;58101;48.658;2.328;2023-02-18T11:44:36;8.57;;;1.30;;
70549;SDS011;58101;48.658;2.328;2023-02-18T11:49:36;6.85;;;1.00;;
70549;SDS011;58101;48.658;2.328;2023-02-18T11:52:04;5.72;;;1.10;;
70549;SDS011;58101;48.658;2.328;2023-02-18T11:54:58;9.52;;;1.85;;
70549;SDS011;58101;48.658;2.328;2023-02-18T11:57:23;7.72;;;1.23;;
70549;SDS011;58101;48.658;2.328;2023-02-18T11:59:50;6.25;;;1.10;;
70549;SDS011;58101;48.658;2.328;2023-02-18T12:02:33;4.85;;;1.15;;
70549;SDS011;58101;48.658;2.328;2023-02-18T12:05:08;7.25;;;1.20;;
70549;SDS011;58101;48.658;2.328;2023-02-18T12:07:45;7.00;;;1.35;;
70549;SDS011;58101;48.658;2.328;2023-02-18T12:10:34;7.63;;;1.35;;
70549;SDS011;58101;48.658;2.328;2023-02-18T12:19:02;6.28;;;1.10;;
70549;SDS011;58101;48.658;2.328;2023-02-18T12:37:55;7.07;;;1.10;;
70549;SDS011;58101;48.658;2.328;2023-02-18T12:40:50;6.65;;;1.20;;
70549;SDS011;58101;48.658;2.328;2023-02-18T12:57:29;7.43;;;1.30;;
70549;SDS011;58101;48.658;2.328;2023-02-18T13:14:32;6.03;;;1.50;;
70549;SDS011;58101;48.658;2.328;2023-02-18T13:17:21;7.57;;;2.00;;
70549;SDS011;58101;48.658;2.328;2023-02-18T13:19:55;8.13;;;1.75;;
70549;SDS011;58101;48.658;2.328;2023-02-18T13:22:25;5.53;;;1.33;;
70549;SDS011;58101;48.658;2.328;2023-02-18T13:24:54;7.65;;;1.80;;
70549;SDS011;58101;48.658;2.328;2023-02-18T13:27:28;6.00;;;1.60;;
70549;SDS011;58101;48.658;2.328;2023-02-18T13:32:38;9.68;;;1.52;;
70549;SDS011;58101;48.658;2.328;2023-02-18T13:37:42;6.40;;;1.17;;
70549;SDS011;58101;48.658;2.328;2023-02-18T13:40:20;5.70;;;1.15;;
70549;SDS011;58101;48.658;2.328;2023-02-18T13:42:52;6.90;;;1.52;;
70549;SDS011;58101;48.658;2.328;2023-02-18T13:47:48;5.95;;;1.20;;
70549;SDS011;58101;48.658;2.328;2023-02-18T13:50:20;7.47;;;1.52;;
70549;SDS011;58101;48.658;2.328;2023-02-18T13:53:17;8.25;;;1.45;;
70549;SDS011;58101;48.658;2.328;2023-02-18T14:01:03;7.93;;;1.40;;
70549;SDS011;58101;48.658;2.328;2023-02-18T14:06:18;6.75;;;1.10;;
70549;SDS011;58101;48.658;2.328;2023-02-18T14:11:56;7.03;;;1.77;;
70549;SDS011;58101;48.658;2.328;2023-02-18T14:17:48;5.32;;;1.30;;
70549;SDS011;58101;48.658;2.328;2023-02-18T14:25:51;4.57;;;1.02;;
70549;SDS011;58101;48.658;2.328;2023-02-18T14:31:39;5.22;;;1.20;;
70549;SDS011;58101;48.658;2.328;2023-02-18T14:51:03;9.98;;;2.42;;
70549;SDS011;58101;48.658;2.328;2023-02-18T14:53:30;6.13;;;1.40;;
70549;SDS011;58101;48.658;2.328;2023-02-18T14:58:30;6.70;;;1.40;;
70549;SDS011;58101;48.658;2.328;2023-02-18T15:01:05;5.95;;;1.30;;
70549;SDS011;58101;48.658;2.328;2023-02-18T15:03:45;5.43;;;1.70;;
70549;SDS011;58101;48.658;2.328;2023-02-18T15:08:49;9.88;;;2.25;;
70549;SDS011;58101;48.658;2.328;2023-02-18T15:47:31;7.15;;;1.40;;
70549;SDS011;58101;48.658;2.328;2023-02-18T15:49:58;5.03;;;1.30;;
70549;SDS011;58101;48.658;2.328;2023-02-18T15:52:30;7.07;;;1.30;;
70549;SDS011;58101;48.658;2.328;2023-02-18T15:55:02;6.18;;;1.40;;
70549;SDS011;58101;48.658;2.328;2023-02-18T15:57:31;6.28;;;1.20;;
70549;SDS011;58101;48.658;2.328;2023-02-18T15:59:59;7.28;;;1.50;;
70549;SDS011;58101;48.658;2.328;2023-02-18T16:02:36;7.32;;;1.45;;
70549;SDS011;58101;48.658;2.328;2023-02-18T16:05:22;6.20;;;1.60;;
70549;SDS011;58101;48.658;2.328;2023-02-18T16:07:51;5.82;;;1.50;;
70549;SDS011;58101;48.658;2.328;2023-02-18T16:15:30;8.52;;;2.10;;
70549;SDS011;58101;48.658;2.328;2023-02-18T16:18:02;5.88;;;1.55;;
70549;SDS011;58101;48.658;2.328;2023-02-18T16:20:35;7.60;;;2.22;;
70549;SDS011;58101;48.658;2.328;2023-02-18T16:23:03;6.55;;;1.60;;
70549;SDS011;58101;48.658;2.328;2023-02-18T16:25:40;7.50;;;1.70;;
70549;SDS011;58101;48.658;2.328;2023-02-18T16:28:12;7.15;;;1.70;;
70549;SDS011;58101;48.658;2.328;2023-02-18T16:30:46;6.72;;;1.90;;
70549;SDS011;58101;48.658;2.328;2023-02-18T16:33:12;7.43;;;1.70;;
70549;SDS011;58101;48.658;2.328;2023-02-18T16:35:37;7.55;;;1.90;;
70549;SDS011;58101;48.658;2.328;2023-02-18T16:38:03;6.78;;;1.88;;
70549;SDS011;58101;48.658;2.328;2023-02-18T16:40:36;10.02;;;2.13;;
70549;SDS011;58101;48.658;2.328;2023-02-18T16:43:11;6.95;;;1.80;;
70549;SDS011;58101;48.658;2.328;2023-02-18T16:45:45;8.95;;;1.88;;
70549;SDS011;58101;48.658;2.328;2023-02-18T16:48:20;6.47;;;1.75;;
70549;SDS011;58101;48.658;2.328;2023-02-18T16:50:51;7.38;;;1.70;;
70549;SDS011;58101;48.658;2.328;2023-02-18T16:53:17;8.57;;;1.90;;
70549;SDS011;58101;48.658;2.328;2023-02-18T16:55:45;6.63;;;1.70;;
70549;SDS011;58101;48.658;2.328;2023-02-18T16:58:10;7.55;;;1.80;;
70549;SDS011;58101;48.658;2.328;2023-02-18T17:00:36;5.90;;;1.80;;
70549;SDS011;58101;48.658;2.328;2023-02-18T17:03:02;6.60;;;1.77;;
70549;SDS011;58101;48.658;2.328;2023-02-18T17:05:30;7.60;;;1.88;;
70549;SDS011;58101;48.658;2.328;2023-02-18T17:13:17;6.90;;;2.08;;
70549;SDS011;58101;48.658;2.328;2023-02-18T17:15:45;10.50;;;2.42;;
70549;SDS011;58101;48.658;2.328;2023-02-18T17:18:11;16.45;;;3.15;;
70549;SDS011;58101;48.658;2.328;2023-02-18T17:20:37;7.35;;;1.90;;
70549;SDS011;58101;48.658;2.328;2023-02-18T17:23:03;12.65;;;3.42;;
70549;SDS011;58101;48.658;2.328;2023-02-18T17:25:33;15.65;;;3.47;;
70549;SDS011;58101;48.658;2.328;2023-02-18T17:28:02;7.00;;;1.90;;
70549;SDS011;58101;48.658;2.328;2023-02-18T17:32:55;19.13;;;4.18;;
70549;SDS011;58101;48.658;2.328;2023-02-18T17:35:22;13.90;;;3.42;;
70549;SDS011;58101;48.658;2.328;2023-02-18T17:37:48;10.45;;;2.70;;
70549;SDS011;58101;48.658;2.328;2023-02-18T17:40:21;14.48;;;3.95;;
70549;SDS011;58101;48.658;2.328;2023-02-18T17:42:48;24.17;;;5.38;;
70549;SDS011;58101;48.658;2.328;2023-02-18T17:45:16;8.95;;;2.58;;
70549;SDS011;58101;48.658;2.328;2023-02-18T17:47:45;11.80;;;2.25;;
70549;SDS011;58101;48.658;2.328;2023-02-18T17:50:12;7.82;;;1.90;;
70549;SDS011;58101;48.658;2.328;2023-02-18T17:52:37;10.07;;;2.38;;
70549;SDS011;58101;48.658;2.328;2023-02-18T17:58:01;14.02;;;2.97;;
70549;SDS011;58101;48.658;2.328;2023-02-18T18:00:32;8.85;;;2.30;;
70549;SDS011;58101;48.658;2.328;2023-02-18T18:03:00;6.20;;;1.90;;
70549;SDS011;58101;48.658;2.328;2023-02-18T18:05:28;8.60;;;2.30;;
70549;SDS011;58101;48.658;2.328;2023-02-18T18:07:54;9.38;;;2.40;;
70549;SDS011;58101;48.658;2.328;2023-02-18T18:10:21;7.82;;;2.60;;
70549;SDS011;58101;48.658;2.328;2023-02-18T18:12:52;8.38;;;2.67;;
70549;SDS011;58101;48.658;2.328;2023-02-18T18:15:20;10.18;;;3.22;;
70549;SDS011;58101;48.658;2.328;2023-02-18T18:17:50;7.45;;;2.35;;
70549;SDS011;58101;48.658;2.328;2023-02-18T18:20:17;9.93;;;2.90;;
70549;SDS011;58101;48.658;2.328;2023-02-18T18:22:43;9.10;;;3.10;;
70549;SDS011;58101;48.658;2.328;2023-02-18T18:27:43;11.70;;;3.08;;
70549;SDS011;58101;48.658;2.328;2023-02-18T18:30:09;10.18;;;3.63;;
70549;SDS011;58101;48.658;2.328;2023-02-18T18:32:35;12.10;;;4.07;;
70549;SDS011;58101;48.658;2.328;2023-02-18T18:35:01;7.63;;;2.72;;
70549;SDS011;58101;48.658;2.328;2023-02-18T18:37:27;9.35;;;3.40;;
70549;SDS011;58101;48.658;2.328;2023-02-18T18:39:52;9.82;;;3.25;;
70549;SDS011;58101;48.658;2.328;2023-02-18T18:42:18;8.23;;;2.97;;
70549;SDS011;58101;48.658;2.328;2023-02-18T18:44:43;11.90;;;4.28;;